Time;durP1;ratioP1;P1;durP2;ratioP2;P2;SDS_P1;SDS_P2;PMS_P1;PMS_P2;Temp;Humidity;BMP_temperature;BMP_pressure;BME280_temperature;BME280_humidity;BME280_pressure;Samples;Min_cycle;Max_cycle;Signal;HPM_P1;HPM_P2
2021/07/24 00:03:52;;;;;;;14.48;7.57;;;18.30;99.90;;;;;;10416693;28;20049;-67
2021/07/24 00:09:05;;;;;;;11.32;7.90;;;18.00;99.90;;;;;;10420493;28;20420;-67
2021/07/24 00:14:07;;;;;;;14.82;9.02;;;17.90;99.90;;;;;;10415007;28;20746;-67
2021/07/24 00:19:09;;;;;;;13.70;8.07;;;17.80;99.90;;;;;;10419450;28;20148;-66
2021/07/24 00:24:10;;;;;;;12.25;7.50;;;17.90;99.90;;;;;;10414734;28;20049;-67
2021/07/24 00:29:12;;;;;;;12.82;7.60;;;17.80;99.90;;;;;;10421831;28;20052;-67
2021/07/24 00:34:17;;;;;;;12.93;7.15;;;17.80;99.90;;;;;;10421251;28;20119;-66
2021/07/24 00:39:19;;;;;;;13.23;7.63;;;17.80;99.90;;;;;;10418968;28;20063;-67
2021/07/24 00:44:24;;;;;;;12.32;8.57;;;17.70;99.90;;;;;;10414739;28;20584;-66
2021/07/24 00:49:27;;;;;;;13.98;8.02;;;17.50;99.90;;;;;;10419081;28;20111;-67
2021/07/24 00:54:30;;;;;;;12.25;8.85;;;17.60;99.90;;;;;;10410225;28;20045;-67
2021/07/24 00:59:33;;;;;;;18.70;9.25;;;17.60;99.90;;;;;;10418694;28;20115;-67
2021/07/24 01:04:35;;;;;;;14.40;9.30;;;17.60;99.90;;;;;;10414966;28;20091;-66
2021/07/24 01:09:36;;;;;;;13.35;8.20;;;17.50;99.90;;;;;;10410815;28;20057;-66
2021/07/24 01:14:38;;;;;;;13.15;7.80;;;17.50;99.90;;;;;;10416473;28;20134;-67
2021/07/24 01:19:40;;;;;;;12.55;8.02;;;17.40;99.90;;;;;;10413276;28;20130;-67
2021/07/24 01:24:41;;;;;;;17.73;8.02;;;17.40;99.90;;;;;;10418681;28;20076;-67
2021/07/24 01:29:43;;;;;;;12.23;8.25;;;17.40;99.90;;;;;;10417891;28;20049;-66
2021/07/24 01:34:46;;;;;;;13.63;8.18;;;17.20;99.90;;;;;;10411590;28;20073;-66
2021/07/24 01:39:47;;;;;;;12.80;7.65;;;17.20;99.90;;;;;;10400079;28;20114;-67
2021/07/24 01:44:49;;;;;;;15.40;9.00;;;17.10;99.90;;;;;;10394487;28;20057;-66
2021/07/24 01:55:16;;;;;;;14.35;8.52;;;17.20;99.90;;;;;;10412419;28;20089;-66
2021/07/24 02:00:18;;;;;;;12.85;7.88;;;17.20;99.90;;;;;;10410063;28;20061;-66
2021/07/24 02:05:34;;;;;;;14.07;8.38;;;17.20;99.90;;;;;;10421450;28;20511;-66
2021/07/24 02:10:38;;;;;;;10.32;7.85;;;17.20;99.90;;;;;;10416826;28;20057;-66
2021/07/24 02:15:40;;;;;;;17.13;7.65;;;17.20;99.90;;;;;;10423678;28;20135;-66
2021/07/24 02:20:44;;;;;;;15.13;7.72;;;17.10;99.90;;;;;;10421059;28;20454;-66
2021/07/24 02:25:46;;;;;;;12.65;7.75;;;17.10;99.90;;;;;;10419913;28;20130;-66
2021/07/24 02:30:48;;;;;;;11.48;7.68;;;17.10;99.90;;;;;;10422082;28;20080;-66
2021/07/24 02:35:49;;;;;;;16.35;8.48;;;17.10;99.90;;;;;;10419831;28;20061;-66
2021/07/24 02:40:51;;;;;;;12.45;7.80;;;17.10;99.90;;;;;;10420636;28;20526;-66
2021/07/24 02:45:53;;;;;;;13.75;8.20;;;17.00;99.90;;;;;;10420171;28;20068;-66
2021/07/24 02:50:55;;;;;;;14.18;8.45;;;17.10;99.90;;;;;;10421108;28;20049;-66
2021/07/24 02:55:56;;;;;;;14.07;9.10;;;17.00;99.90;;;;;;10420193;28;20044;-66
2021/07/24 03:00:58;;;;;;;15.95;8.07;;;16.90;99.90;;;;;;10416904;28;20080;-66
2021/07/24 03:06:00;;;;;;;12.65;7.72;;;16.90;99.90;;;;;;10419630;28;20103;-66
2021/07/24 03:11:02;;;;;;;14.15;8.32;;;16.80;99.90;;;;;;10416990;28;20123;-66
2021/07/24 03:16:04;;;;;;;12.88;8.80;;;16.70;99.90;;;;;;10418872;28;20499;-66
2021/07/24 03:21:06;;;;;;;13.35;8.63;;;16.70;99.90;;;;;;10420962;28;20095;-66
2021/07/24 03:26:08;;;;;;;15.90;9.98;;;16.70;99.90;;;;;;10420234;28;20065;-66
2021/07/24 03:31:10;;;;;;;14.63;9.20;;;16.70;99.90;;;;;;10420533;28;20464;-66
2021/07/24 03:36:12;;;;;;;15.65;10.43;;;16.60;99.90;;;;;;10420353;28;20053;-66
2021/07/24 03:41:13;;;;;;;14.65;10.10;;;16.50;99.90;;;;;;10418213;28;20056;-63
2021/07/24 03:46:16;;;;;;;12.38;8.65;;;16.40;99.90;;;;;;10417102;28;20080;-63
2021/07/24 03:51:18;;;;;;;15.50;8.88;;;16.50;99.90;;;;;;10416618;28;20399;-62
2021/07/24 03:56:21;;;;;;;15.05;9.40;;;16.40;99.90;;;;;;10419806;28;20141;-63
2021/07/24 04:01:25;;;;;;;12.70;9.02;;;16.50;99.90;;;;;;10417938;28;20049;-62
2021/07/24 04:06:27;;;;;;;12.27;7.93;;;16.50;99.90;;;;;;10418933;28;20061;-62
2021/07/24 04:11:29;;;;;;;12.07;8.48;;;16.60;99.90;;;;;;10418750;28;20483;-62
2021/07/24 04:16:33;;;;;;;20.15;9.57;;;16.70;99.90;;;;;;10418958;28;20076;-62
2021/07/24 04:21:34;;;;;;;13.55;8.52;;;16.80;99.90;;;;;;10414934;28;20052;-62
2021/07/24 04:26:36;;;;;;;10.55;8.05;;;16.90;99.90;;;;;;10416518;28;20062;-63
2021/07/24 04:31:38;;;;;;;12.07;8.20;;;17.00;99.90;;;;;;10412654;28;20131;-62
2021/07/24 04:36:42;;;;;;;13.98;8.15;;;17.00;99.90;;;;;;10419013;28;20049;-62
2021/07/24 04:41:44;;;;;;;12.40;7.82;;;17.10;99.90;;;;;;10419357;28;20080;-62
2021/07/24 04:46:46;;;;;;;12.50;8.25;;;17.30;99.90;;;;;;10413483;28;20120;-62
2021/07/24 04:51:47;;;;;;;14.32;8.10;;;17.30;99.90;;;;;;10412730;28;20052;-62
2021/07/24 04:56:49;;;;;;;13.85;7.75;;;17.50;99.90;;;;;;10419278;28;20124;-62
2021/07/24 05:01:51;;;;;;;12.98;7.78;;;17.70;99.90;;;;;;10395246;28;20056;-62
2021/07/24 05:06:54;;;;;;;11.10;6.45;;;17.80;99.90;;;;;;10417724;28;20482;-62
2021/07/24 05:11:56;;;;;;;14.00;8.32;;;17.90;99.90;;;;;;10416723;28;20606;-62
2021/07/24 05:17:11;;;;;;;11.85;7.30;;;18.10;99.90;;;;;;10417708;28;20053;-62
2021/07/24 05:22:14;;;;;;;11.70;8.35;;;18.20;99.90;;;;;;10414889;28;20048;-62
2021/07/24 05:27:16;;;;;;;11.80;7.47;;;18.20;99.90;;;;;;10413120;28;20080;-62
2021/07/24 05:32:18;;;;;;;14.27;7.82;;;18.30;99.90;;;;;;10414728;28;20138;-62
2021/07/24 05:37:20;;;;;;;13.35;7.88;;;18.30;99.90;;;;;;10414731;28;20077;-62
2021/07/24 05:42:22;;;;;;;12.18;7.43;;;18.30;99.90;;;;;;10424215;28;20061;-62
2021/07/24 05:47:24;;;;;;;11.75;7.00;;;18.40;99.90;;;;;;10425968;28;20075;-62
2021/07/24 05:52:26;;;;;;;12.70;7.90;;;18.40;99.90;;;;;;10420183;28;20438;-63
2021/07/24 05:57:28;;;;;;;14.32;7.35;;;18.50;99.90;;;;;;10427185;28;20099;-63
2021/07/24 06:02:29;;;;;;;10.05;7.28;;;18.60;99.90;;;;;;10423481;28;20053;-62
2021/07/24 06:07:31;;;;;;;12.60;7.05;;;18.70;99.90;;;;;;10421859;28;20115;-63
2021/07/24 06:12:33;;;;;;;10.85;7.30;;;18.80;99.90;;;;;;10421706;28;20045;-62
2021/07/24 06:17:35;;;;;;;10.57;6.80;;;19.10;99.90;;;;;;10416152;28;20053;-64
2021/07/24 06:22:39;;;;;;;11.52;6.60;;;19.30;99.90;;;;;;10419878;28;20124;-63
2021/07/24 06:27:41;;;;;;;16.08;8.50;;;19.60;99.90;;;;;;10405719;28;20057;-64
2021/07/24 06:32:43;;;;;;;11.27;7.25;;;19.90;99.90;;;;;;10406272;28;20076;-63
2021/07/24 06:37:44;;;;;;;10.18;6.43;;;20.20;99.90;;;;;;10421234;28;20514;-63
2021/07/24 06:42:46;;;;;;;12.00;6.45;;;20.30;99.90;;;;;;10420477;28;20107;-63
2021/07/24 06:47:48;;;;;;;11.40;6.30;;;20.50;99.90;;;;;;10417486;28;20077;-63
2021/07/24 06:52:51;;;;;;;9.77;6.22;;;20.60;99.90;;;;;;10416477;28;20056;-58
2021/07/24 06:57:53;;;;;;;9.63;6.40;;;20.70;99.90;;;;;;10422968;28;20627;-59
2021/07/24 07:02:59;;;;;;;14.15;6.82;;;20.80;99.90;;;;;;10424711;28;20081;-57
2021/07/24 07:08:01;;;;;;;11.90;6.60;;;21.00;99.90;;;;;;10417602;28;20714;-57
2021/07/24 07:13:03;;;;;;;12.35;6.65;;;21.10;99.90;;;;;;10417551;28;20084;-58
2021/07/24 07:18:05;;;;;;;9.60;6.30;;;21.30;99.90;;;;;;10417815;28;20115;-58
2021/07/24 07:23:06;;;;;;;10.35;6.68;;;21.10;99.90;;;;;;10401228;28;20524;-56
2021/07/24 07:28:09;;;;;;;10.48;6.35;;;21.10;99.90;;;;;;10418196;28;20107;-57
2021/07/24 07:33:10;;;;;;;9.02;6.45;;;21.00;99.90;;;;;;10418128;28;20487;-58
2021/07/24 07:38:12;;;;;;;10.98;6.57;;;21.20;99.90;;;;;;10411129;28;20045;-58
2021/07/24 07:43:14;;;;;;;8.65;6.47;;;21.30;99.90;;;;;;10423021;28;20057;-58
2021/07/24 07:48:16;;;;;;;10.82;6.38;;;21.10;99.90;;;;;;10417034;28;20127;-57
2021/07/24 07:53:17;;;;;;;11.25;6.72;;;21.50;99.90;;;;;;10420883;28;20377;-57
2021/07/24 07:58:19;;;;;;;9.88;6.90;;;21.60;99.90;;;;;;10418744;28;20491;-58
2021/07/24 08:03:24;;;;;;;9.50;6.32;;;22.00;99.90;;;;;;10415988;28;20065;-57
2021/07/24 08:08:26;;;;;;;11.02;7.32;;;21.70;99.90;;;;;;10421133;28;20049;-58
2021/07/24 08:13:28;;;;;;;11.00;6.55;;;22.00;99.90;;;;;;10407514;28;20118;-63
2021/07/24 08:18:29;;;;;;;11.35;6.72;;;22.20;99.90;;;;;;10413143;28;20491;-63
2021/07/24 08:23:31;;;;;;;11.15;7.47;;;22.70;99.90;;;;;;10417511;28;23623;-63
2021/07/24 08:28:33;;;;;;;13.82;7.18;;;23.00;99.90;;;;;;10402860;28;20489;-63
2021/07/24 08:33:35;;;;;;;16.35;7.90;;;23.40;99.90;;;;;;10419152;28;20049;-58
2021/07/24 08:38:37;;;;;;;12.52;7.95;;;23.40;99.90;;;;;;10415373;28;20053;-59
2021/07/24 08:43:39;;;;;;;10.55;6.80;;;23.50;99.70;;;;;;10414477;28;20061;-59
2021/07/24 08:48:41;;;;;;;11.95;7.57;;;23.40;99.90;;;;;;10417637;28;20080;-59
2021/07/24 08:53:43;;;;;;;12.88;7.85;;;23.50;99.00;;;;;;10417490;28;20053;-60
2021/07/24 08:58:48;;;;;;;12.20;7.43;;;23.50;98.60;;;;;;10418769;28;20567;-60
2021/07/24 09:03:50;;;;;;;9.83;7.00;;;23.40;99.00;;;;;;10417873;28;20061;-59
2021/07/24 09:08:52;;;;;;;12.13;7.30;;;23.60;98.70;;;;;;10417528;28;20076;-60
2021/07/24 09:13:55;;;;;;;12.88;7.35;;;23.30;99.80;;;;;;10418155;28;20123;-60
2021/07/24 09:18:59;;;;;;;13.02;7.63;;;22.80;99.70;;;;;;10418637;28;20486;-60
2021/07/24 09:24:24;;;;;;;14.30;7.75;;;23.10;99.60;;;;;;10417585;28;20576;-63
2021/07/24 09:29:25;;;;;;;10.57;7.88;;;23.50;99.10;;;;;;10364444;28;20052;-63
2021/07/24 09:34:40;;;;;;;14.25;7.38;;;23.50;99.00;;;;;;10411633;28;20110;-63
2021/07/24 09:39:42;;;;;;;13.15;7.55;;;23.60;98.80;;;;;;10412818;28;20053;-63
2021/07/24 09:44:43;;;;;;;11.65;7.40;;;23.50;98.50;;;;;;10412208;28;20064;-63
2021/07/24 09:49:45;;;;;;;13.65;7.28;;;23.40;99.50;;;;;;10415260;28;20098;-63
2021/07/24 09:54:47;;;;;;;16.40;7.45;;;23.50;98.80;;;;;;10411980;28;20057;-63
2021/07/24 09:59:50;;;;;;;14.23;7.55;;;23.40;99.90;;;;;;10414933;28;20096;-63
2021/07/24 10:04:54;;;;;;;12.07;6.95;;;23.40;99.90;;;;;;10415884;28;20446;-63
2021/07/24 10:10:04;;;;;;;11.30;7.28;;;23.40;99.90;;;;;;10410721;28;20111;-63
2021/07/24 10:15:09;;;;;;;15.15;7.70;;;23.40;99.90;;;;;;10409899;28;20108;-63
2021/07/24 10:20:14;;;;;;;12.93;7.40;;;23.40;99.90;;;;;;10413057;28;20066;-63
2021/07/24 10:25:20;;;;;;;14.43;7.50;;;23.40;99.90;;;;;;10414887;28;20554;-63
2021/07/24 10:30:29;;;;;;;12.52;7.15;;;23.20;99.90;;;;;;10421563;28;20049;-63
2021/07/24 10:35:42;;;;;;;10.02;7.30;;;23.50;99.90;;;;;;10422108;28;20056;-63
2021/07/24 10:40:44;;;;;;;12.27;7.05;;;23.50;99.90;;;;;;10420984;28;20112;-63
2021/07/24 10:45:45;;;;;;;13.52;7.82;;;24.00;99.10;;;;;;10424767;28;20403;-60
2021/07/24 10:50:54;;;;;;;17.63;9.35;;;24.50;97.30;;;;;;10407851;28;20449;-61
2021/07/24 10:55:56;;;;;;;13.52;7.35;;;24.30;97.60;;;;;;10421923;28;20053;-60
2021/07/24 11:00:59;;;;;;;12.30;7.53;;;24.50;97.40;;;;;;10418377;28;20443;-60
2021/07/24 11:06:21;;;;;;;13.27;6.93;;;25.10;95.20;;;;;;10417057;28;20390;-60
2021/07/24 11:11:40;;;;;;;10.23;7.60;;;25.40;93.90;;;;;;10372539;28;20971;-60
2021/07/24 11:17:07;;;;;;;11.38;6.30;;;25.70;93.50;;;;;;10418572;28;20442;-60
2021/07/24 11:22:20;;;;;;;12.88;6.88;;;26.00;94.00;;;;;;10421981;28;20149;-60
2021/07/24 11:27:26;;;;;;;11.77;7.40;;;26.20;93.10;;;;;;10376228;28;20046;-61
2021/07/24 11:32:36;;;;;;;9.43;6.35;;;26.10;92.30;;;;;;10420761;28;20053;-60
2021/07/24 11:37:46;;;;;;;16.77;7.20;;;26.10;91.90;;;;;;10420090;28;20053;-60
2021/07/24 11:43:04;;;;;;;8.52;5.93;;;26.60;91.30;;;;;;10398645;28;20045;-60
2021/07/24 11:48:09;;;;;;;9.75;6.32;;;26.30;90.10;;;;;;10419016;28;20061;-60
2021/07/24 11:53:11;;;;;;;8.63;5.97;;;27.00;89.60;;;;;;10416703;28;20057;-64
2021/07/24 11:58:17;;;;;;;12.18;6.05;;;26.80;89.00;;;;;;10404486;28;20068;-65
2021/07/24 12:03:27;;;;;;;8.63;5.22;;;26.30;90.00;;;;;;10414467;28;20135;-65
2021/07/24 12:08:30;;;;;;;18.20;6.43;;;26.90;89.30;;;;;;10416461;28;20087;-65
2021/07/24 12:13:32;;;;;;;13.73;6.18;;;27.20;87.40;;;;;;10412752;28;21256;-65
2021/07/24 12:18:43;;;;;;;8.32;5.25;;;26.90;85.90;;;;;;10417539;28;20056;-66
2021/07/24 12:24:05;;;;;;;11.38;5.13;;;26.90;86.80;;;;;;10402707;28;20041;-65
2021/07/24 12:29:10;;;;;;;9.93;6.07;;;26.70;87.40;;;;;;10418745;28;20557;-58
2021/07/24 12:34:18;;;;;;;7.93;5.53;;;26.60;90.30;;;;;;10413359;28;20041;-59
2021/07/24 12:39:21;;;;;;;8.02;5.55;;;26.50;90.00;;;;;;10412154;28;20052;-60
2021/07/24 12:44:23;;;;;;;9.13;5.90;;;26.10;90.60;;;;;;10414367;28;20244;-60
2021/07/24 12:49:36;;;;;;;11.55;6.13;;;26.20;91.10;;;;;;10414900;28;20438;-58
2021/07/24 12:55:03;;;;;;;11.05;5.50;;;26.30;92.50;;;;;;10398104;28;20061;-59
2021/07/24 13:00:10;;;;;;;6.95;5.32;;;26.30;91.60;;;;;;10367564;28;20103;-57
2021/07/24 13:05:14;;;;;;;8.60;6.00;;;26.20;92.00;;;;;;10419329;28;20107;-57
2021/07/24 13:10:16;;;;;;;11.10;6.80;;;26.00;92.50;;;;;;10416931;28;20114;-58
2021/07/24 13:15:17;;;;;;;5.05;2.40;;;25.30;95.60;;;;;;10420221;28;20057;-61
2021/07/24 13:20:19;;;;;;;8.90;3.33;;;23.30;99.90;;;;;;10418326;28;20080;-64
2021/07/24 13:25:42;;;;;;;6.45;2.60;;;21.80;99.90;;;;;;10418013;28;20206;-65
2021/07/24 13:30:44;;;;;;;9.40;3.28;;;21.10;99.90;;;;;;10415924;28;20460;-63
2021/07/24 13:35:46;;;;;;;6.75;3.17;;;21.00;99.90;;;;;;10414600;28;20068;-63
2021/07/24 13:40:48;;;;;;;8.90;3.42;;;21.20;99.90;;;;;;10415385;28;20115;-63
2021/07/24 13:45:50;;;;;;;10.48;5.43;;;21.30;99.90;;;;;;10413765;28;20061;-64
2021/07/24 13:50:51;;;;;;;8.43;4.15;;;21.40;99.90;;;;;;10418962;28;20049;-58
2021/07/24 13:55:55;;;;;;;8.63;4.60;;;21.60;99.90;;;;;;10414529;28;20057;-58
2021/07/24 14:00:56;;;;;;;7.28;3.58;;;22.20;99.90;;;;;;10422675;28;20136;-58
2021/07/24 14:06:00;;;;;;;7.20;4.13;;;22.40;99.90;;;;;;10420752;28;20394;-59
2021/07/24 14:11:19;;;;;;;4.47;2.92;;;22.80;99.90;;;;;;10426120;28;20048;-59
2021/07/24 14:22:36;;;;;;;3.17;2.15;;;22.90;99.90;;;;;;10277755;28;20053;-59
2021/07/24 14:27:39;;;;;;;2.17;1.50;;;22.80;99.90;;;;;;10379145;28;20052;-59
2021/07/24 14:32:41;;;;;;;2.63;1.80;;;23.00;99.90;;;;;;10377969;28;20111;-58
2021/07/24 14:37:42;;;;;;;2.67;1.60;;;23.10;99.90;;;;;;10381377;28;20139;-59
2021/07/24 14:42:44;;;;;;;8.30;2.10;;;23.30;99.90;;;;;;10378128;28;20053;-58
2021/07/24 14:47:46;;;;;;;3.40;2.13;;;23.30;99.90;;;;;;10384533;28;20124;-59
2021/07/24 14:52:48;;;;;;;3.40;1.92;;;23.20;99.90;;;;;;10381120;28;20054;-58
2021/07/24 14:57:50;;;;;;;3.88;2.22;;;23.50;99.90;;;;;;10383630;28;20046;-57
2021/07/24 15:02:52;;;;;;;3.45;1.60;;;23.80;99.90;;;;;;10383388;28;20347;-58
2021/07/24 15:07:54;;;;;;;5.80;2.35;;;24.60;99.90;;;;;;10382119;28;20429;-57
2021/07/24 15:12:56;;;;;;;2.97;2.05;;;24.80;99.90;;;;;;10358362;28;20052;-59
2021/07/24 15:17:58;;;;;;;4.25;1.35;;;24.80;99.90;;;;;;10382136;28;20049;-58
2021/07/24 15:22:59;;;;;;;2.88;1.60;;;25.40;99.90;;;;;;10416042;28;20111;-58
2021/07/24 15:28:01;;;;;;;1.70;0.85;;;25.70;99.90;;;;;;10418496;28;20054;-59
2021/07/24 15:33:03;;;;;;;1.55;1.05;;;25.50;99.90;;;;;;10420456;28;20679;-65
2021/07/24 15:38:06;;;;;;;1.40;0.90;;;25.20;99.90;;;;;;10416594;28;20111;-59
2021/07/24 15:43:07;;;;;;;1.40;0.80;;;25.10;99.90;;;;;;10423265;28;20525;-59
2021/07/24 15:48:09;;;;;;;1.20;0.77;;;24.80;99.90;;;;;;10418534;28;20139;-59
2021/07/24 15:53:11;;;;;;;1.10;0.90;;;24.50;99.90;;;;;;10422433;28;20064;-60
2021/07/24 15:58:12;;;;;;;2.00;0.90;;;24.20;99.90;;;;;;10407506;28;20110;-59
2021/07/24 16:03:14;;;;;;;2.17;1.00;;;24.00;99.90;;;;;;10416603;28;20123;-59
2021/07/24 16:08:16;;;;;;;1.23;0.93;;;23.90;99.90;;;;;;10400976;28;20055;-59
2021/07/24 16:13:17;;;;;;;1.73;0.82;;;23.90;99.90;;;;;;10420341;28;20054;-58
2021/07/24 16:18:19;;;;;;;2.15;1.33;;;24.50;99.90;;;;;;10414275;28;20079;-59
2021/07/24 16:23:21;;;;;;;1.90;1.10;;;24.20;99.90;;;;;;10418838;28;20104;-57
2021/07/24 16:28:22;;;;;;;1.95;1.10;;;23.60;99.90;;;;;;10418956;28;20076;-57
2021/07/24 16:33:24;;;;;;;1.48;1.10;;;23.60;99.90;;;;;;10418430;28;20063;-58
2021/07/24 16:38:26;;;;;;;2.05;1.50;;;23.20;99.90;;;;;;10407398;28;20049;-58
2021/07/24 16:43:28;;;;;;;2.60;1.70;;;23.40;99.90;;;;;;10422290;28;20110;-57
2021/07/24 16:48:29;;;;;;;2.30;1.40;;;23.60;99.90;;;;;;10416775;28;20070;-59
2021/07/24 16:53:31;;;;;;;1.70;1.60;;;23.30;99.90;;;;;;10419317;28;20132;-58
2021/07/24 16:58:33;;;;;;;4.15;2.75;;;24.00;99.90;;;;;;10413789;28;20045;-61
2021/07/24 17:03:36;;;;;;;4.75;2.83;;;24.80;99.90;;;;;;10409355;28;20183;-61
2021/07/24 17:08:37;;;;;;;2.17;1.98;;;23.90;99.90;;;;;;10411212;28;20045;-58
2021/07/24 17:13:39;;;;;;;4.82;3.00;;;25.10;99.90;;;;;;10417401;28;20040;-61
2021/07/24 17:18:41;;;;;;;5.38;2.85;;;24.60;99.90;;;;;;10415611;28;20475;-58
2021/07/24 17:23:45;;;;;;;3.88;3.25;;;24.20;99.90;;;;;;10413998;28;20049;-62
2021/07/24 17:28:46;;;;;;;4.93;2.83;;;23.20;99.90;;;;;;10420936;28;20081;-58
2021/07/24 17:33:49;;;;;;;5.18;2.60;;;22.90;99.90;;;;;;10424333;28;20114;-57
2021/07/24 17:38:51;;;;;;;3.58;2.72;;;22.70;99.90;;;;;;10427731;28;20475;-58
2021/07/24 17:43:52;;;;;;;4.20;2.60;;;22.70;99.90;;;;;;10426887;28;20046;-59
2021/07/24 17:48:55;;;;;;;4.03;2.92;;;22.60;99.90;;;;;;10421576;28;20415;-57
2021/07/24 17:53:57;;;;;;;4.22;3.42;;;22.70;99.90;;;;;;10425101;28;20106;-57
2021/07/24 17:58:59;;;;;;;3.22;2.47;;;23.00;99.90;;;;;;10406709;28;20402;-58
2021/07/24 18:04:01;;;;;;;3.83;2.85;;;22.70;99.90;;;;;;10426681;28;20045;-56
2021/07/24 18:09:03;;;;;;;3.00;2.53;;;22.60;99.90;;;;;;10425450;28;20052;-59
2021/07/24 18:14:05;;;;;;;3.47;2.67;;;22.50;99.90;;;;;;10423423;28;20153;-58
2021/07/24 18:19:07;;;;;;;3.60;2.50;;;22.40;99.90;;;;;;10422163;28;20053;-56
2021/07/24 18:24:09;;;;;;;5.07;3.10;;;22.30;99.90;;;;;;10426714;28;20061;-57
2021/07/24 18:29:11;;;;;;;6.22;3.22;;;22.30;99.90;;;;;;10418449;28;20379;-59
2021/07/24 18:34:15;;;;;;;5.63;3.92;;;22.30;99.90;;;;;;10422694;28;20495;-58
2021/07/24 18:39:16;;;;;;;6.35;3.83;;;22.20;99.90;;;;;;10422837;28;20053;-58
2021/07/24 18:44:18;;;;;;;4.90;3.80;;;22.00;99.90;;;;;;10422035;28;20045;-58
2021/07/24 18:49:20;;;;;;;5.13;3.97;;;22.00;99.90;;;;;;10425439;28;20119;-58
2021/07/24 18:54:21;;;;;;;5.10;3.80;;;21.90;99.90;;;;;;10421825;28;20049;-59
2021/07/24 18:59:23;;;;;;;7.35;3.88;;;21.90;99.90;;;;;;10421283;28;20049;-59
2021/07/24 19:04:28;;;;;;;9.40;4.35;;;21.90;99.90;;;;;;10422525;28;20579;-57
2021/07/24 19:09:30;;;;;;;6.95;4.25;;;21.80;99.90;;;;;;10418050;28;20097;-58
2021/07/24 19:14:34;;;;;;;6.68;3.72;;;21.70;99.90;;;;;;10422945;28;20056;-57
2021/07/24 19:19:36;;;;;;;5.05;3.50;;;21.70;99.90;;;;;;10418676;28;20072;-57
2021/07/24 19:24:38;;;;;;;4.10;2.83;;;21.60;99.90;;;;;;10416842;28;20103;-57
2021/07/24 19:29:40;;;;;;;4.90;3.35;;;21.60;99.90;;;;;;10407469;28;20418;-58
2021/07/24 19:34:41;;;;;;;5.65;3.53;;;21.40;99.90;;;;;;10417521;28;20122;-57
2021/07/24 19:39:43;;;;;;;4.38;3.10;;;21.30;99.90;;;;;;10421802;28;20053;-59
2021/07/24 19:44:45;;;;;;;6.32;3.85;;;21.20;99.90;;;;;;10424699;28;20095;-59
2021/07/24 19:49:47;;;;;;;6.95;3.58;;;21.20;99.90;;;;;;10420386;28;20051;-64
2021/07/24 19:54:49;;;;;;;5.82;3.85;;;21.10;99.90;;;;;;10417320;28;20068;-64
2021/07/24 19:59:50;;;;;;;6.60;4.65;;;21.10;99.90;;;;;;10399009;28;20061;-64
2021/07/24 20:04:52;;;;;;;6.32;4.50;;;21.10;99.90;;;;;;10419459;28;20057;-64
2021/07/24 20:09:54;;;;;;;5.32;4.30;;;21.00;99.90;;;;;;10418361;28;20061;-64
2021/07/24 20:14:56;;;;;;;5.97;4.05;;;20.80;99.90;;;;;;10414266;28;20081;-64
2021/07/24 20:19:57;;;;;;;6.78;4.53;;;20.80;99.90;;;;;;10419441;28;20041;-64
2021/07/24 20:24:59;;;;;;;12.20;5.22;;;20.70;99.90;;;;;;10419791;28;20053;-64
2021/07/24 20:30:01;;;;;;;6.78;4.40;;;20.70;99.90;;;;;;10417764;28;20059;-64
2021/07/24 20:35:03;;;;;;;7.45;4.40;;;20.70;99.90;;;;;;10394230;28;20110;-64
2021/07/24 20:40:07;;;;;;;6.53;3.72;;;20.70;99.90;;;;;;10410845;28;20111;-64
2021/07/24 20:45:10;;;;;;;8.23;5.75;;;20.70;99.90;;;;;;10403921;28;20669;-64
2021/07/24 20:50:12;;;;;;;11.18;6.43;;;20.60;99.90;;;;;;10419483;28;20054;-64
2021/07/24 20:55:17;;;;;;;9.63;6.30;;;20.60;99.90;;;;;;10414267;28;20053;-64
2021/07/24 21:00:18;;;;;;;11.38;7.10;;;20.50;99.90;;;;;;10396101;28;20078;-64
2021/07/24 21:05:20;;;;;;;15.13;8.65;;;20.20;99.90;;;;;;10414111;28;20110;-64
2021/07/24 21:10:22;;;;;;;11.57;7.40;;;20.20;99.90;;;;;;10416884;28;20049;-66
2021/07/24 21:15:23;;;;;;;9.05;6.47;;;20.10;99.90;;;;;;10415907;28;20339;-66
2021/07/24 21:20:25;;;;;;;8.48;5.53;;;20.00;99.90;;;;;;10408982;28;20115;-66
2021/07/24 21:25:32;;;;;;;10.15;6.97;;;19.90;99.90;;;;;;10412400;28;20140;-66
2021/07/24 21:30:35;;;;;;;10.50;6.97;;;19.80;99.90;;;;;;10414262;28;20056;-65
2021/07/24 21:35:37;;;;;;;11.50;8.05;;;19.60;99.90;;;;;;10416342;28;20478;-66
2021/07/24 21:40:39;;;;;;;10.88;6.57;;;19.50;99.90;;;;;;10416480;28;20126;-66
2021/07/24 21:45:40;;;;;;;11.75;6.65;;;19.40;99.90;;;;;;10414035;28;20132;-66
2021/07/24 21:50:50;;;;;;;9.68;6.88;;;19.30;99.90;;;;;;10418055;28;20511;-66
2021/07/24 21:55:54;;;;;;;9.07;6.32;;;19.30;99.90;;;;;;10414318;28;20057;-66
2021/07/24 22:00:56;;;;;;;8.63;5.97;;;19.20;99.90;;;;;;10415352;28;20114;-67
2021/07/24 22:31:00;;;;;;;10.55;7.53;;;18.70;99.90;;;;;;10318360;28;20896;-66
2021/07/24 22:36:02;;;;;;;10.85;7.25;;;18.60;99.90;;;;;;10424898;28;20037;-66
2021/07/24 22:41:04;;;;;;;11.00;7.15;;;18.60;99.90;;;;;;10425197;28;20080;-66
2021/07/24 22:46:07;;;;;;;13.32;7.18;;;18.50;99.90;;;;;;10425004;28;20057;-66
2021/07/24 22:51:09;;;;;;;9.90;6.80;;;18.40;99.90;;;;;;10421466;28;20107;-66
2021/07/24 22:56:10;;;;;;;10.23;6.82;;;18.40;99.90;;;;;;10422914;28;20080;-66
2021/07/24 23:01:12;;;;;;;11.63;6.57;;;18.20;99.90;;;;;;10421885;28;20053;-66
2021/07/24 23:06:14;;;;;;;11.80;7.20;;;18.20;99.90;;;;;;10422676;28;20130;-66
2021/07/24 23:11:22;;;;;;;17.67;9.13;;;18.00;99.90;;;;;;10423950;28;20394;-66
2021/07/24 23:16:24;;;;;;;13.48;8.73;;;17.80;99.90;;;;;;10421452;28;20056;-66
2021/07/24 23:21:27;;;;;;;14.32;7.70;;;17.80;99.90;;;;;;10404140;28;20059;-66
2021/07/24 23:26:28;;;;;;;12.05;8.75;;;17.80;99.90;;;;;;10415698;28;20053;-66
2021/07/24 23:31:30;;;;;;;12.93;8.20;;;17.80;99.90;;;;;;10418003;28;20057;-70
2021/07/24 23:36:32;;;;;;;13.30;8.23;;;17.80;99.90;;;;;;10417091;28;20148;-70
2021/07/24 23:41:33;;;;;;;12.30;6.80;;;17.70;99.90;;;;;;10412115;28;20053;-70
2021/07/24 23:46:35;;;;;;;10.82;6.20;;;17.50;99.90;;;;;;10420012;28;20375;-70
2021/07/24 23:51:37;;;;;;;11.30;5.95;;;17.40;99.90;;;;;;10408137;28;20048;-70
2021/07/24 23:56:39;;;;;;;11.88;6.57;;;17.40;99.90;;;;;;10417690;28;20145;-70
